Darstellungsparameter: Aktuell verwendete Einstellungen:
Skalierung der Graphiken ... ?
xyx+y,   Skalierungsfaktor:      Skalierung: Modus: x, Faktor: 1
Darstellungszeitraum ... ?
Vom - - bis: - -   Zeitraum: 16.06.2020 - 16.06.2020
Min/Max/Avg-Anzeige ... ?
Zeige MMA aktuell
Zeige MMA Monat
Zeige MMA alles
Zeige --A aktuell
Zeige --A Monat
Zeige --A alles
Keine MMA-Anzeige
MMA:
Average (ber die Originaldaten)
MMA-Basis: 16.06.2020 - 16.06.2020
Quicknavigation für Darstellung... ?
Tage:      1T, 2T, 3T, 5T -1T -2T -3T -5T +1T +2T +3T +5T
Wochen: 1W, 2W, 3W -1W -2W -3W +1W +2W +3W
Monate: 1M, 3M, 6M -1M -3M -6M +1M +3M +6M
Jahre:    1J, 3J, 5J, 10J -1J -3J -5J -10J +1J +3J +5J +10J
Nutze für die Darstellung ... ?
Originaldaten oder Mittelwerte auf ...
Stundenbasis Tagesbasis Wochenbasis
Monatsbasis Jahresbasis      Datenbasis: Original-Daten
Darstellen als:
Statistik (Auto) Statistik J:M      Darstellung:
Zur Graphik,    zurück zur Übersicht aller Sensoren.
 
Tabellarische Datenbersicht: ?
 
Sensor: Nr:Datum:Temp:Abs-Feuchte:Windchill:Wind:
Aussen-T/F 1 16-06-2020 00:00:00 17.1 C 12.52 g/m*3 17.1 C 0 km/h
2 16-06-2020 00:05:00 17.1 C 12.52 g/m*3 17.1 C 0 km/h
3 16-06-2020 00:10:00 17.1 C 12.37 g/m*3 17.1 C 0 km/h
4 16-06-2020 00:15:00 17.1 C 12.52 g/m*3 17.1 C 0 km/h
5 16-06-2020 00:20:00 17 C 12.3 g/m*3 17 C 0 km/h
6 16-06-2020 00:25:00 17.1 C 12.37 g/m*3 17.1 C 0 km/h
7 16-06-2020 00:30:00 17.1 C 12.52 g/m*3 17.1 C 0 km/h
8 16-06-2020 00:35:00 17.1 C 12.52 g/m*3 17.1 C 0 km/h
9 16-06-2020 00:40:00 17.2 C 12.89 g/m*3 17.2 C 0 km/h
10 16-06-2020 00:45:00 17.2 C 12.89 g/m*3 17.2 C 0 km/h
11 16-06-2020 00:50:00 17.2 C 12.89 g/m*3 17.2 C 0 km/h
12 16-06-2020 00:55:00 17.1 C 12.96 g/m*3 17.1 C 0 km/h
13 16-06-2020 01:00:00 17.1 C 13.1 g/m*3 17.1 C 0 km/h
14 16-06-2020 01:05:00 17.1 C 13.1 g/m*3 17.1 C 0 km/h
15 16-06-2020 01:10:00 17 C 13.02 g/m*3 17 C 0 km/h
16 16-06-2020 01:15:00 16.9 C 12.94 g/m*3 16.9 C 0 km/h
17 16-06-2020 01:20:00 16.9 C 12.94 g/m*3 16.9 C 0 km/h
18 16-06-2020 01:25:00 16.8 C 12.87 g/m*3 16.8 C 0 km/h
19 16-06-2020 01:30:00 16.8 C 13.01 g/m*3 16.8 C 0 km/h
20 16-06-2020 01:35:00 16.8 C 13.01 g/m*3 16.8 C 0 km/h
21 16-06-2020 01:40:00 16.8 C 13.15 g/m*3 16.8 C 0 km/h
22 16-06-2020 01:45:00 16.8 C 13.15 g/m*3 16.8 C 0 km/h
23 16-06-2020 01:50:00 16.8 C 13.15 g/m*3 16.8 C 0 km/h
24 16-06-2020 01:55:00 16.7 C 13.07 g/m*3 16.7 C 0 km/h
25 16-06-2020 02:00:00 16.7 C 13.07 g/m*3 16.7 C 0 km/h
Sensor: Nr:Datum:Temp:Abs-Feuchte:Windchill:Wind:
Aussen-T/F 26 16-06-2020 02:05:00 16.7 C 13.22 g/m*3 16.7 C 0 km/h
27 16-06-2020 02:10:00 16.6 C 13.14 g/m*3 16.6 C 0 km/h
28 16-06-2020 02:15:00 16.6 C 13.14 g/m*3 16.6 C 0 km/h
29 16-06-2020 02:20:00 16.5 C 13.06 g/m*3 16.5 C 0 km/h
30 16-06-2020 02:25:00 16.4 C 12.98 g/m*3 16.4 C 0 km/h
31 16-06-2020 02:30:00 16.4 C 12.98 g/m*3 16.4 C 0 km/h
32 16-06-2020 02:35:00 16.4 C 12.98 g/m*3 16.4 C 0 km/h
33 16-06-2020 02:40:00 16.4 C 12.98 g/m*3 16.4 C 0 km/h
34 16-06-2020 02:45:00 16.3 C 12.9 g/m*3 16.3 C 0 km/h
35 16-06-2020 02:50:00 16.3 C 12.9 g/m*3 16.3 C 0 km/h
36 16-06-2020 02:55:00 16.2 C 12.82 g/m*3 16.2 C 0 km/h
37 16-06-2020 03:00:00 16.3 C 13.04 g/m*3 16.3 C 0 km/h
38 16-06-2020 03:05:00 16.2 C 12.96 g/m*3 16.2 C 0 km/h
39 16-06-2020 03:10:00 16.2 C 12.96 g/m*3 16.2 C 0 km/h
40 16-06-2020 03:15:00 16.2 C 12.96 g/m*3 16.2 C 0 km/h
41 16-06-2020 03:20:00 16.2 C 12.96 g/m*3 16.2 C 0 km/h
42 16-06-2020 03:25:00 16.2 C 12.96 g/m*3 16.2 C 0 km/h
43 16-06-2020 03:30:00 16.2 C 12.96 g/m*3 16.2 C 0 km/h
44 16-06-2020 03:35:00 16.2 C 12.96 g/m*3 16.2 C 0 km/h
45 16-06-2020 03:40:00 16.2 C 12.96 g/m*3 16.2 C 0 km/h
46 16-06-2020 03:45:00 16.2 C 12.96 g/m*3 16.2 C 0 km/h
47 16-06-2020 03:50:00 16.2 C 12.96 g/m*3 16.2 C 0 km/h
48 16-06-2020 03:55:00 16.1 C 13.02 g/m*3 16.1 C 0 km/h
49 16-06-2020 04:00:00 16.1 C 13.02 g/m*3 16.1 C 0 km/h
50 16-06-2020 04:05:00 16.1 C 13.02 g/m*3 16.1 C 0 km/h
Sensor: Nr:Datum:Temp:Abs-Feuchte:Windchill:Wind:
Aussen-T/F 51 16-06-2020 04:10:00 16.1 C 13.02 g/m*3 16.1 C 0 km/h
52 16-06-2020 04:15:00 16.1 C 13.02 g/m*3 16.1 C 0 km/h
53 16-06-2020 04:20:00 16.1 C 13.02 g/m*3 16.1 C 0 km/h
54 16-06-2020 04:25:00 16.1 C 13.02 g/m*3 16.1 C 0 km/h
55 16-06-2020 04:30:00 16.1 C 13.02 g/m*3 16.1 C 0 km/h
56 16-06-2020 04:35:00 16.1 C 13.02 g/m*3 16.1 C 0 km/h
57 16-06-2020 04:40:00 16.1 C 13.02 g/m*3 16.1 C 0 km/h
58 16-06-2020 04:45:00 16.1 C 13.02 g/m*3 16.1 C 0 km/h
59 16-06-2020 04:50:00 16.2 C 13.1 g/m*3 16.2 C 0 km/h
60 16-06-2020 04:55:00 16.2 C 13.1 g/m*3 16.2 C 0 km/h
61 16-06-2020 05:00:00 16.2 C 13.1 g/m*3 16.2 C 0 km/h
62 16-06-2020 05:05:00 16.2 C 13.1 g/m*3 16.2 C 0 km/h
63 16-06-2020 05:10:00 16.1 C 13.02 g/m*3 16.1 C 0 km/h
64 16-06-2020 05:15:00 16.1 C 13.02 g/m*3 16.1 C 0 km/h
65 16-06-2020 05:20:00 16.1 C 13.02 g/m*3 16.1 C 0 km/h
66 16-06-2020 05:25:00 16.1 C 13.02 g/m*3 16.1 C 0 km/h
67 16-06-2020 05:30:00 16 C 12.94 g/m*3 16 C 0 km/h
68 16-06-2020 05:35:00 16 C 12.94 g/m*3 16 C 1.6 km/h
69 16-06-2020 05:40:00 16 C 12.94 g/m*3 16 C 1.6 km/h
70 16-06-2020 05:45:00 16 C 12.94 g/m*3 16 C 0 km/h
71 16-06-2020 05:50:00 16 C 12.94 g/m*3 16 C 0 km/h
72 16-06-2020 05:55:00 15.9 C 12.87 g/m*3 15.9 C 0 km/h
73 16-06-2020 06:00:00 15.9 C 12.87 g/m*3 15.9 C 0 km/h
74 16-06-2020 06:05:00 15.9 C 12.87 g/m*3 15.9 C 1.6 km/h
75 16-06-2020 06:10:00 15.9 C 12.87 g/m*3 15.9 C 1.6 km/h
Sensor: Nr:Datum:Temp:Abs-Feuchte:Windchill:Wind:
Aussen-T/F 76 16-06-2020 06:15:00 15.9 C 12.87 g/m*3 15.9 C 0 km/h
77 16-06-2020 06:20:00 15.9 C 12.87 g/m*3 15.9 C 0 km/h
78 16-06-2020 06:25:00 15.9 C 13 g/m*3 15.9 C 0 km/h
79 16-06-2020 06:30:00 15.9 C 13 g/m*3 15.9 C 0 km/h
80 16-06-2020 06:35:00 16 C 13.08 g/m*3 16 C 0 km/h
81 16-06-2020 06:40:00 16 C 13.08 g/m*3 16 C 1.6 km/h
82 16-06-2020 06:45:00 16 C 13.08 g/m*3 16 C 0 km/h
83 16-06-2020 06:50:00 16 C 13.08 g/m*3 16 C 0 km/h
84 16-06-2020 06:55:00 16 C 13.08 g/m*3 16 C 0 km/h
85 16-06-2020 07:00:00 16 C 13.08 g/m*3 16 C 0 km/h
86 16-06-2020 07:05:00 16 C 13.08 g/m*3 16 C 0 km/h
87 16-06-2020 07:10:00 16 C 13.08 g/m*3 16 C 0 km/h
88 16-06-2020 07:15:00 16.1 C 13.16 g/m*3 16.1 C 0 km/h
89 16-06-2020 07:20:00 16.1 C 13.16 g/m*3 16.1 C 0 km/h
90 16-06-2020 07:25:00 16.1 C 13.16 g/m*3 16.1 C 0 km/h
91 16-06-2020 07:30:00 16.2 C 13.24 g/m*3 16.2 C 0 km/h
92 16-06-2020 07:35:00 16.2 C 13.24 g/m*3 16.2 C 0 km/h
93 16-06-2020 07:40:00 16.3 C 13.32 g/m*3 16.3 C 0 km/h
94 16-06-2020 07:45:00 16.3 C 13.32 g/m*3 16.3 C 0 km/h
95 16-06-2020 07:50:00 16.4 C 13.4 g/m*3 16.4 C 0 km/h
96 16-06-2020 07:55:00 16.5 C 13.48 g/m*3 16.5 C 1.6 km/h
97 16-06-2020 08:00:00 16.6 C 13.56 g/m*3 16.6 C 0 km/h
98 16-06-2020 08:05:00 16.6 C 13.56 g/m*3 16.6 C 4.8 km/h
99 16-06-2020 08:10:00 16.6 C 13.56 g/m*3 16.6 C 1.6 km/h
100 16-06-2020 08:15:00 16.6 C 13.56 g/m*3 16.6 C 1.6 km/h
Sensor: Nr:Datum:Temp:Abs-Feuchte:Windchill:Wind:
Aussen-T/F 101 16-06-2020 08:20:00 16.6 C 13.56 g/m*3 16.6 C 1.6 km/h
102 16-06-2020 08:25:00 16.6 C 13.56 g/m*3 16.6 C 1.6 km/h
103 16-06-2020 08:30:00 16.6 C 13.56 g/m*3 16.6 C 0 km/h
104 16-06-2020 08:35:00 16.7 C 13.64 g/m*3 16.7 C 4.8 km/h
105 16-06-2020 08:40:00 16.7 C 13.64 g/m*3 16.7 C 0 km/h
106 16-06-2020 08:45:00 16.8 C 13.73 g/m*3 16.8 C 1.6 km/h
107 16-06-2020 08:50:00 16.9 C 13.81 g/m*3 16.9 C 3.2 km/h
108 16-06-2020 08:55:00 16.9 C 13.81 g/m*3 16.9 C 4.8 km/h
109 16-06-2020 09:00:00 16.9 C 13.81 g/m*3 16.9 C 6.4 km/h
110 16-06-2020 09:05:00 16.9 C 13.81 g/m*3 16.9 C 1.6 km/h
111 16-06-2020 09:10:00 17 C 13.89 g/m*3 17 C 1.6 km/h
112 16-06-2020 09:15:00 17 C 13.89 g/m*3 17 C 3.2 km/h
113 16-06-2020 09:20:00 17.1 C 13.97 g/m*3 17.1 C 1.6 km/h
114 16-06-2020 09:25:00 17.1 C 13.97 g/m*3 17.1 C 3.2 km/h
115 16-06-2020 09:30:00 17.2 C 14.06 g/m*3 17.2 C 1.6 km/h
116 16-06-2020 09:35:00 17.2 C 14.06 g/m*3 17.2 C 3.2 km/h
117 16-06-2020 09:40:00 17.2 C 14.06 g/m*3 17.2 C 1.6 km/h
118 16-06-2020 09:45:00 17.3 C 14.14 g/m*3 17.3 C 3.2 km/h
119 16-06-2020 09:50:00 17.3 C 14.14 g/m*3 17.3 C 1.6 km/h
120 16-06-2020 09:55:00 17.3 C 14.14 g/m*3 17.3 C 3.2 km/h
121 16-06-2020 10:00:00 17.5 C 14.31 g/m*3 17.5 C 1.6 km/h
122 16-06-2020 10:05:00 17.6 C 14.4 g/m*3 17.6 C 0 km/h
123 16-06-2020 10:10:00 17.7 C 14.48 g/m*3 17.7 C 0 km/h
124 16-06-2020 10:15:00 17.7 C 14.33 g/m*3 17.7 C 1.6 km/h
125 16-06-2020 10:20:00 17.7 C 14.33 g/m*3 17.7 C 0 km/h
Sensor: Nr:Datum:Temp:Abs-Feuchte:Windchill:Wind:
Aussen-T/F 126 16-06-2020 10:25:00 17.8 C 14.42 g/m*3 17.8 C 0 km/h
127 16-06-2020 10:30:00 17.8 C 14.27 g/m*3 17.8 C 0 km/h
128 16-06-2020 10:35:00 17.9 C 14.35 g/m*3 17.9 C 0 km/h
129 16-06-2020 10:40:00 18.1 C 14.52 g/m*3 18.1 C 0 km/h
130 16-06-2020 10:45:00 18.2 C 14.77 g/m*3 18.2 C 0 km/h
131 16-06-2020 10:50:00 18.5 C 14.87 g/m*3 18.5 C 0 km/h
132 16-06-2020 10:55:00 18.7 C 15.05 g/m*3 18.7 C 0 km/h
133 16-06-2020 11:00:00 18.7 C 14.89 g/m*3 18.7 C 0 km/h
134 16-06-2020 11:05:00 18.7 C 14.73 g/m*3 18.7 C 0 km/h
135 16-06-2020 11:10:00 18.6 C 14.48 g/m*3 18.6 C 0 km/h
136 16-06-2020 11:15:00 18.8 C 14.82 g/m*3 18.8 C 0 km/h
137 16-06-2020 11:20:00 18.9 C 14.74 g/m*3 18.9 C 0 km/h
138 16-06-2020 11:25:00 18.9 C 14.58 g/m*3 18.9 C 3.2 km/h
139 16-06-2020 11:30:00 19 C 14.34 g/m*3 19 C 1.6 km/h
140 16-06-2020 11:35:00 19.1 C 14.59 g/m*3 19.1 C 1.6 km/h
141 16-06-2020 11:40:00 19.2 C 14.68 g/m*3 19.2 C 1.6 km/h
142 16-06-2020 11:45:00 19.3 C 14.6 g/m*3 19.3 C 4.8 km/h
143 16-06-2020 11:50:00 19.4 C 14.52 g/m*3 19.4 C 6.4 km/h
144 16-06-2020 11:55:00 19.6 C 14.35 g/m*3 19.6 C 3.2 km/h
145 16-06-2020 12:00:00 19.7 C 14.43 g/m*3 19.7 C 4.8 km/h
146 16-06-2020 12:05:00 19.7 C 14.09 g/m*3 19.7 C 4.8 km/h
147 16-06-2020 12:10:00 19.8 C 14.35 g/m*3 19.8 C 3.2 km/h
148 16-06-2020 12:15:00 19.9 C 14.26 g/m*3 19.9 C 4.8 km/h
149 16-06-2020 12:20:00 19.8 C 14.18 g/m*3 19.8 C 4.8 km/h
150 16-06-2020 12:25:00 19.8 C 13.84 g/m*3 19.8 C 3.2 km/h
Sensor: Nr:Datum:Temp:Abs-Feuchte:Windchill:Wind:
Aussen-T/F 151 16-06-2020 12:30:00 19.8 C 14.01 g/m*3 19.8 C 1.6 km/h
152 16-06-2020 12:35:00 20 C 14.34 g/m*3 20 C 1.6 km/h
153 16-06-2020 12:40:00 20.1 C 14.43 g/m*3 20.1 C 3.2 km/h
154 16-06-2020 12:45:00 20.2 C 14.69 g/m*3 20.2 C 3.2 km/h
155 16-06-2020 12:50:00 20.1 C 14.43 g/m*3 20.1 C 4.8 km/h
156 16-06-2020 12:55:00 20.1 C 14.08 g/m*3 20.1 C 4.8 km/h
157 16-06-2020 13:00:00 20.1 C 14.25 g/m*3 20.1 C 3.2 km/h
158 16-06-2020 13:05:00 20.1 C 14.08 g/m*3 20.1 C 6.4 km/h
159 16-06-2020 13:10:00 20.2 C 14.16 g/m*3 20.2 C 6.4 km/h
160 16-06-2020 13:15:00 20.2 C 14.16 g/m*3 20.2 C 6.4 km/h
161 16-06-2020 13:20:00 20.3 C 14.07 g/m*3 20.3 C 6.4 km/h
162 16-06-2020 13:25:00 20.4 C 13.98 g/m*3 20.4 C 4.8 km/h
163 16-06-2020 13:30:00 20.6 C 13.78 g/m*3 20.6 C 6.4 km/h
164 16-06-2020 13:35:00 20.6 C 13.6 g/m*3 20.6 C 6.4 km/h
165 16-06-2020 13:40:00 20.7 C 13.32 g/m*3 20.7 C 8.1 km/h
166 16-06-2020 13:45:00 20.8 C 13.4 g/m*3 20.8 C 9.7 km/h
167 16-06-2020 13:50:00 20.9 C 13.84 g/m*3 20.9 C 9.7 km/h
168 16-06-2020 13:55:00 20.9 C 13.66 g/m*3 20.9 C 4.8 km/h
169 16-06-2020 14:00:00 21 C 13.74 g/m*3 21 C 6.4 km/h
170 16-06-2020 14:05:00 21.1 C 14.37 g/m*3 21.1 C 8.1 km/h
171 16-06-2020 14:10:00 21.1 C 14.74 g/m*3 21.1 C 4.8 km/h
172 16-06-2020 14:15:00 21.1 C 14.19 g/m*3 21.1 C 0 km/h
173 16-06-2020 14:20:00 21.1 C 14.56 g/m*3 21.1 C 0 km/h
174 16-06-2020 14:25:00 21.2 C 14.27 g/m*3 21.2 C 3.2 km/h
175 16-06-2020 14:30:00 21.2 C 14.46 g/m*3 21.2 C 0 km/h
Sensor: Nr:Datum:Temp:Abs-Feuchte:Windchill:Wind:
Aussen-T/F 176 16-06-2020 14:35:00 21.1 C 13.82 g/m*3 21.1 C 1.6 km/h
177 16-06-2020 14:40:00 21.1 C 14 g/m*3 21.1 C 1.6 km/h
178 16-06-2020 14:45:00 21.1 C 14 g/m*3 21.1 C 0 km/h
179 16-06-2020 14:50:00 21.2 C 14.27 g/m*3 21.2 C 0 km/h
180 16-06-2020 14:55:00 21.3 C 14.54 g/m*3 21.3 C 0 km/h
181 16-06-2020 15:00:00 21.3 C 14.54 g/m*3 21.3 C 0 km/h
182 16-06-2020 15:05:00 21.3 C 14.17 g/m*3 21.3 C 0 km/h
183 16-06-2020 15:10:00 21.4 C 14.62 g/m*3 21.4 C 0 km/h
184 16-06-2020 15:15:00 21.6 C 14.41 g/m*3 21.6 C 3.2 km/h
185 16-06-2020 15:20:00 21.6 C 14.79 g/m*3 21.6 C 3.2 km/h
186 16-06-2020 15:25:00 21.6 C 14.22 g/m*3 21.6 C 4.8 km/h
187 16-06-2020 15:30:00 21.7 C 14.69 g/m*3 21.7 C 4.8 km/h
188 16-06-2020 15:35:00 21.5 C 14.33 g/m*3 21.5 C 6.4 km/h
189 16-06-2020 15:40:00 21.4 C 14.62 g/m*3 21.4 C 1.6 km/h
190 16-06-2020 15:45:00 21.3 C 14.73 g/m*3 21.3 C 0 km/h
191 16-06-2020 15:50:00 21.1 C 13.82 g/m*3 21.1 C 6.4 km/h
192 16-06-2020 15:55:00 20.7 C 13.68 g/m*3 20.7 C 9.7 km/h
193 16-06-2020 16:00:00 20.2 C 13.64 g/m*3 20.2 C 3.2 km/h
194 16-06-2020 16:05:00 19.8 C 13.32 g/m*3 19.8 C 3.2 km/h
195 16-06-2020 16:10:00 19.7 C 13.92 g/m*3 19.7 C 4.8 km/h
196 16-06-2020 16:15:00 19.4 C 13.68 g/m*3 19.4 C 6.4 km/h
197 16-06-2020 16:20:00 19.3 C 13.93 g/m*3 19.3 C 4.8 km/h
198 16-06-2020 16:25:00 19.1 C 13.93 g/m*3 19.1 C 0 km/h
199 16-06-2020 16:30:00 19 C 14.01 g/m*3 19 C 0 km/h
200 16-06-2020 16:35:00 18.8 C 13.85 g/m*3 18.8 C 3.2 km/h
Sensor: Nr:Datum:Temp:Abs-Feuchte:Windchill:Wind:
Aussen-T/F 201 16-06-2020 16:40:00 18.4 C 13.68 g/m*3 18.4 C 4.8 km/h
202 16-06-2020 16:45:00 18.3 C 13.76 g/m*3 18.3 C 3.2 km/h
203 16-06-2020 16:50:00 18.2 C 13.83 g/m*3 18.2 C 0 km/h
204 16-06-2020 16:55:00 18.1 C 13.75 g/m*3 18.1 C 0 km/h
205 16-06-2020 17:00:00 18.2 C 13.99 g/m*3 18.2 C 0 km/h
206 16-06-2020 17:05:00 18.3 C 14.07 g/m*3 18.3 C 0 km/h
207 16-06-2020 17:10:00 18.3 C 14.07 g/m*3 18.3 C 0 km/h
208 16-06-2020 17:15:00 18.3 C 13.92 g/m*3 18.3 C 0 km/h
209 16-06-2020 17:20:00 18.3 C 13.92 g/m*3 18.3 C 0 km/h
210 16-06-2020 17:25:00 18.3 C 13.92 g/m*3 18.3 C 0 km/h
211 16-06-2020 17:30:00 18.3 C 14.07 g/m*3 18.3 C 0 km/h
212 16-06-2020 17:35:00 18.4 C 14 g/m*3 18.4 C 0 km/h
213 16-06-2020 17:40:00 18.6 C 14.32 g/m*3 18.6 C 1.6 km/h
214 16-06-2020 17:45:00 18.6 C 14.17 g/m*3 18.6 C 1.6 km/h
215 16-06-2020 17:50:00 18.5 C 13.61 g/m*3 18.5 C 0 km/h
216 16-06-2020 17:55:00 18.6 C 13.69 g/m*3 18.6 C 3.2 km/h
217 16-06-2020 18:00:00 18.6 C 13.85 g/m*3 18.6 C 3.2 km/h
218 16-06-2020 18:05:00 18.7 C 14.09 g/m*3 18.7 C 1.6 km/h
219 16-06-2020 18:10:00 18.7 C 14.09 g/m*3 18.7 C 3.2 km/h
220 16-06-2020 18:15:00 18.8 C 14.33 g/m*3 18.8 C 3.2 km/h
221 16-06-2020 18:20:00 18.8 C 14.49 g/m*3 18.8 C 3.2 km/h
222 16-06-2020 18:25:00 18.8 C 14.49 g/m*3 18.8 C 1.6 km/h
223 16-06-2020 18:30:00 18.8 C 14.49 g/m*3 18.8 C 3.2 km/h
224 16-06-2020 18:35:00 18.8 C 14.33 g/m*3 18.8 C 0 km/h
225 16-06-2020 18:40:00 18.8 C 14.33 g/m*3 18.8 C 1.6 km/h
Sensor: Nr:Datum:Temp:Abs-Feuchte:Windchill:Wind:
Aussen-T/F 226 16-06-2020 18:45:00 18.9 C 14.58 g/m*3 18.9 C 0 km/h
227 16-06-2020 18:50:00 19.1 C 14.59 g/m*3 19.1 C 4.8 km/h
228 16-06-2020 18:55:00 19.2 C 14.35 g/m*3 19.2 C 3.2 km/h
229 16-06-2020 19:00:00 19.4 C 14.68 g/m*3 19.4 C 6.4 km/h
230 16-06-2020 19:05:00 19.8 C 14.86 g/m*3 19.8 C 4.8 km/h
231 16-06-2020 19:10:00 20.2 C 14.86 g/m*3 20.2 C 6.4 km/h
232 16-06-2020 19:15:00 20.2 C 14.69 g/m*3 20.2 C 6.4 km/h
233 16-06-2020 19:20:00 20.2 C 14.86 g/m*3 20.2 C 6.4 km/h
234 16-06-2020 19:25:00 20.4 C 15.21 g/m*3 20.4 C 4.8 km/h
235 16-06-2020 19:30:00 20.6 C 15.03 g/m*3 20.6 C 6.4 km/h
236 16-06-2020 19:35:00 20.6 C 14.86 g/m*3 20.6 C 6.4 km/h
237 16-06-2020 19:40:00 20.6 C 15.03 g/m*3 20.6 C 6.4 km/h
238 16-06-2020 19:45:00 20.6 C 15.03 g/m*3 20.6 C 6.4 km/h
239 16-06-2020 19:50:00 20.6 C 15.03 g/m*3 20.6 C 6.4 km/h
240 16-06-2020 19:55:00 20.6 C 14.86 g/m*3 20.6 C 6.4 km/h
241 16-06-2020 20:00:00 20.4 C 14.68 g/m*3 20.4 C 8.1 km/h
242 16-06-2020 20:05:00 20.4 C 14.68 g/m*3 20.4 C 8.1 km/h
243 16-06-2020 20:10:00 20.6 C 14.86 g/m*3 20.6 C 3.2 km/h
244 16-06-2020 20:15:00 20.7 C 14.94 g/m*3 20.7 C 3.2 km/h
245 16-06-2020 20:20:00 20.8 C 14.85 g/m*3 20.8 C 1.6 km/h
246 16-06-2020 20:25:00 20.7 C 14.4 g/m*3 20.7 C 0 km/h
247 16-06-2020 20:30:00 20.7 C 14.58 g/m*3 20.7 C 0 km/h
248 16-06-2020 20:35:00 20.7 C 14.58 g/m*3 20.7 C 0 km/h
249 16-06-2020 20:40:00 20.8 C 14.67 g/m*3 20.8 C 0 km/h
250 16-06-2020 20:45:00 20.7 C 14.58 g/m*3 20.7 C 0 km/h
Sensor: Nr:Datum:Temp:Abs-Feuchte:Windchill:Wind:
Aussen-T/F 251 16-06-2020 20:50:00 20.7 C 14.58 g/m*3 20.7 C 0 km/h
252 16-06-2020 20:55:00 20.6 C 14.5 g/m*3 20.6 C 0 km/h
253 16-06-2020 21:00:00 20.6 C 14.86 g/m*3 20.6 C 0 km/h
254 16-06-2020 21:05:00 20.4 C 14.68 g/m*3 20.4 C 0 km/h
255 16-06-2020 21:10:00 20.2 C 14.51 g/m*3 20.2 C 0 km/h
256 16-06-2020 21:15:00 19.9 C 14.26 g/m*3 19.9 C 0 km/h
257 16-06-2020 21:20:00 19.7 C 14.26 g/m*3 19.7 C 0 km/h
258 16-06-2020 21:25:00 19.3 C 14.1 g/m*3 19.3 C 4.8 km/h
259 16-06-2020 21:30:00 18.9 C 13.77 g/m*3 18.9 C 4.8 km/h
260 16-06-2020 21:35:00 18.6 C 13.69 g/m*3 18.6 C 3.2 km/h
261 16-06-2020 21:40:00 18.3 C 13.6 g/m*3 18.3 C 4.8 km/h
262 16-06-2020 21:45:00 18 C 13.52 g/m*3 18 C 3.2 km/h
263 16-06-2020 21:50:00 17.8 C 13.36 g/m*3 17.8 C 4.8 km/h
264 16-06-2020 21:55:00 17.6 C 13.35 g/m*3 17.6 C 4.8 km/h
265 16-06-2020 22:00:00 17.4 C 13.19 g/m*3 17.4 C 1.6 km/h
266 16-06-2020 22:05:00 17.3 C 13.11 g/m*3 17.3 C 0 km/h
267 16-06-2020 22:10:00 17.1 C 12.96 g/m*3 17.1 C 3.2 km/h
268 16-06-2020 22:15:00 16.9 C 12.94 g/m*3 16.9 C 0 km/h
269 16-06-2020 22:20:00 16.8 C 12.87 g/m*3 16.8 C 3.2 km/h
270 16-06-2020 22:25:00 16.7 C 12.93 g/m*3 16.7 C 1.6 km/h
271 16-06-2020 22:30:00 16.6 C 12.71 g/m*3 16.6 C 0 km/h
272 16-06-2020 22:35:00 16.5 C 12.78 g/m*3 16.5 C 3.2 km/h
273 16-06-2020 22:40:00 16.4 C 12.7 g/m*3 16.4 C 3.2 km/h
274 16-06-2020 22:45:00 16.3 C 12.62 g/m*3 16.3 C 0 km/h
275 16-06-2020 22:50:00 16.2 C 12.55 g/m*3 16.2 C 1.6 km/h
Sensor: Nr:Datum:Temp:Abs-Feuchte:Windchill:Wind:
Aussen-T/F 276 16-06-2020 22:55:00 16.1 C 12.61 g/m*3 16.1 C 0 km/h
277 16-06-2020 23:00:00 15.9 C 12.46 g/m*3 15.9 C 1.6 km/h
278 16-06-2020 23:05:00 15.8 C 12.38 g/m*3 15.8 C 0 km/h
279 16-06-2020 23:10:00 15.7 C 12.31 g/m*3 15.7 C 0 km/h
280 16-06-2020 23:15:00 15.6 C 12.23 g/m*3 15.6 C 0 km/h
281 16-06-2020 23:20:00 15.6 C 12.23 g/m*3 15.6 C 0 km/h
282 16-06-2020 23:25:00 15.4 C 12.22 g/m*3 15.4 C 0 km/h
283 16-06-2020 23:30:00 15.4 C 12.22 g/m*3 15.4 C 0 km/h
284 16-06-2020 23:35:00 15.3 C 12.14 g/m*3 15.3 C 0 km/h
285 16-06-2020 23:40:00 15.2 C 12.07 g/m*3 15.2 C 0 km/h
286 16-06-2020 23:45:00 15.1 C 12 g/m*3 15.1 C 0 km/h
287 16-06-2020 23:50:00 15 C 11.93 g/m*3 15 C 0 km/h
288 16-06-2020 23:55:00 14.9 C 11.85 g/m*3 14.9 C 0 km/h

Legende:
   Min
   Max


Maximal/Minimal-Werte vom 16.06.2020 - 16.06.2020

Sensor Min Max Avg
Temp
(Aussen-T/F)
14.9 °C
16-06-2020  23:55:00
21.7 °C
16-06-2020  15:30:00
18.04 °C
Abs-Feuchte
(Aussen-T/F)
11.85 g/m*3
16-06-2020  23:55:00
15.21 g/m*3
16-06-2020  19:25:00
13.62 g/m*3
Windchill
(Aussen-T/F)
14.9 C
16-06-2020  23:55:00
21.7 C
16-06-2020  15:30:00
17.98 C

Die Daten stammen von einer Davis Vantage Pro 2 Wetter-Station und werden unter Linux mit der Software wview2wettercgi und aufbereitet. Alle Angaben erfolgen ohne Gewähr für ihre Vollständigkeit oder Richtigkeit.
Kontakt: Rainer Krienke krienke@uni-koblenz.de . Meine Webseiten an der Uni Koblenz oder privat.
Version: $Revision: 0.78 $